Meteo Giornale » Osservazioni meteo Grecia » Ioannina

ore: 22:50 - Osservazioni Meteo Ioannina
Lat. 39° 42' N Lon. 20° 49' E Alt. 476 metri s.l.m.

molto_nuvoloso Europe/Athens

21 °C

Molto Nuvoloso

Temp. 24 Ore

21 °C

32 °C

Nord

0 Km/h

Dew point 20 °C

Umidità 94 %

Visibilità  10 Km

Il sole sorge alle ore 06:26

Il sole tramonta alle ore 20:59

Data e Ora Cielo e Fenomeni T °C DP °C Um. % Pres. hPa Vis. km Vento km/h
Ieri h: 22:50 molto_nuvoloso Molto Nuvoloso 21 20 94 1014 10 N 0
Ieri h: 22:20 molto_nuvoloso Molto Nuvoloso 21 20 94 1014 10 N 0
Ieri h: 21:50 molto_nuvoloso Molto Nuvoloso 22 21 94 1014 10 N 0
Ieri h: 21:20 molto_nuvoloso Molto Nuvoloso 22 21 94 1014 10 N 0
Ieri h: 20:50 molto_nuvoloso Molto Nuvoloso 23 20 83 1014 10 N 0
Ieri h: 20:20 molto_nuvoloso Molto Nuvoloso 23 18 73 1014 10 N 0
Ieri h: 19:50 molto_nuvoloso Molto Nuvoloso 24 19 73 1014 10 N 0
Ieri h: 19:20 coperto_pioggia Pioggia Debole 25 19 69 1014 10 N 0
Ieri h: 18:50 molto_nuvoloso Molto Nuvoloso 28 19 58 1014 10 N 0
Ieri h: 18:20 molto_nuvoloso Molto Nuvoloso 29 18 51 1014 10 N 0
Ieri h: 17:50 nuvoloso Nuvoloso 30 18 48 1013 10 N 0
Ieri h: 17:20 nuvoloso Nuvoloso 30 19 51 1013 10 N 0
Ieri h: 16:50 molto_nuvoloso Molto Nuvoloso 30 17 45 1013 10 N 0
Ieri h: 16:20 nuvoloso Nuvoloso 30 17 45 1013 10 N 0
Ieri h: 14:20 nuvoloso Nuvoloso 32 14 33 1014 10 N 0
Ieri h: 13:20 poco_nuvoloso Poco Nuvoloso 30 14 37 1015 10 N 0
Ieri h: 12:50 poco_nuvoloso Poco Nuvoloso 30 14 37 1015 10 N 0
Ieri h: 12:20 poco_nuvoloso Poco Nuvoloso 28 15 45 1015 10 N 0
Ieri h: 11:50 poco_nuvoloso Poco Nuvoloso 28 15 45 1015 10 N 0
Ieri h: 11:20 poco_nuvoloso Poco Nuvoloso 26 15 50 1016 10 N 0
Ieri h: 10:50 poco_nuvoloso Poco Nuvoloso 26 15 50 1016 10 N 0
Ieri h: 10:20 poco_nuvoloso Poco Nuvoloso 23 17 68 1016 10 N 0
Ieri h: 09:50 poco_nuvoloso Poco Nuvoloso 23 17 68 1016 10 N 0
Ieri h: 09:20 poco_nuvoloso Poco Nuvoloso 22 16 68 1016 10 N 0
Ieri h: 08:50 poco_nuvoloso Poco Nuvoloso 22 16 68 1016 10 N 0